sensor_id;sensor_type;location;lat;lon;timestamp;pressure;altitude;pressure_sealevel;temperature;humidity
71567;BME280;59403;47.456;19.120;2023-05-13T00:01:09;100772.53;;;10.59;100.00
71567;BME280;59403;47.456;19.120;2023-05-13T00:03:37;100777.84;;;10.59;100.00
71567;BME280;59403;47.456;19.120;2023-05-13T00:06:04;100770.88;;;10.58;100.00
71567;BME280;59403;47.456;19.120;2023-05-13T00:08:31;100770.44;;;10.62;100.00
71567;BME280;59403;47.456;19.120;2023-05-13T00:10:58;100772.41;;;10.60;100.00
71567;BME280;59403;47.456;19.120;2023-05-13T00:13:25;100772.69;;;10.57;100.00
71567;BME280;59403;47.456;19.120;2023-05-13T00:15:52;100769.75;;;10.60;100.00
71567;BME280;59403;47.456;19.120;2023-05-13T00:18:19;100768.78;;;10.61;100.00
71567;BME280;59403;47.456;19.120;2023-05-13T00:20:48;100772.94;;;10.64;100.00
71567;BME280;59403;47.456;19.120;2023-05-13T00:23:16;100766.16;;;10.52;100.00
71567;BME280;59403;47.456;19.120;2023-05-13T00:25:42;100770.34;;;10.54;100.00
71567;BME280;59403;47.456;19.120;2023-05-13T00:28:09;100776.47;;;10.55;100.00
71567;BME280;59403;47.456;19.120;2023-05-13T00:30:38;100773.53;;;10.58;100.00
71567;BME280;59403;47.456;19.120;2023-05-13T00:33:06;100774.12;;;10.52;100.00
71567;BME280;59403;47.456;19.120;2023-05-13T00:35:33;100779.25;;;10.53;100.00
71567;BME280;59403;47.456;19.120;2023-05-13T00:38:01;100786.81;;;10.48;100.00
71567;BME280;59403;47.456;19.120;2023-05-13T00:40:28;100781.91;;;10.53;100.00
71567;BME280;59403;47.456;19.120;2023-05-13T00:42:55;100786.78;;;10.58;100.00
71567;BME280;59403;47.456;19.120;2023-05-13T00:45:22;100784.94;;;10.58;100.00
71567;BME280;59403;47.456;19.120;2023-05-13T00:47:50;100784.12;;;10.58;100.00
71567;BME280;59403;47.456;19.120;2023-05-13T00:50:17;100787.16;;;10.63;100.00
71567;BME280;59403;47.456;19.120;2023-05-13T00:52:45;100781.19;;;10.61;100.00
71567;BME280;59403;47.456;19.120;2023-05-13T00:55:14;100789.59;;;10.56;100.00
71567;BME280;59403;47.456;19.120;2023-05-13T00:57:41;100787.06;;;10.55;100.00
71567;BME280;59403;47.456;19.120;2023-05-13T01:00:09;100789.84;;;10.53;100.00
71567;BME280;59403;47.456;19.120;2023-05-13T01:02:41;100783.44;;;10.56;100.00
71567;BME280;59403;47.456;19.120;2023-05-13T01:05:17;100792.09;;;10.48;100.00
71567;BME280;59403;47.456;19.120;2023-05-13T01:07:53;100787.34;;;10.52;100.00
71567;BME280;59403;47.456;19.120;2023-05-13T01:10:30;100785.84;;;10.49;100.00
71567;BME280;59403;47.456;19.120;2023-05-13T01:13:03;100792.09;;;10.48;100.00
71567;BME280;59403;47.456;19.120;2023-05-13T01:15:38;100790.47;;;10.47;100.00
71567;BME280;59403;47.456;19.120;2023-05-13T01:18:09;100796.44;;;10.49;100.00
71567;BME280;59403;47.456;19.120;2023-05-13T01:20:38;100791.38;;;10.56;100.00
71567;BME280;59403;47.456;19.120;2023-05-13T01:23:08;100790.31;;;10.49;100.00
71567;BME280;59403;47.456;19.120;2023-05-13T01:25:35;100793.50;;;10.52;100.00
71567;BME280;59403;47.456;19.120;2023-05-13T01:28:02;100796.44;;;10.49;100.00
71567;BME280;59403;47.456;19.120;2023-05-13T01:30:29;100794.75;;;10.48;100.00
71567;BME280;59403;47.456;19.120;2023-05-13T01:32:56;100799.41;;;10.37;100.00
71567;BME280;59403;47.456;19.120;2023-05-13T01:35:25;100799.28;;;10.38;100.00
71567;BME280;59403;47.456;19.120;2023-05-13T01:37:53;100807.94;;;10.30;100.00
71567;BME280;59403;47.456;19.120;2023-05-13T01:40:24;100806.72;;;10.25;100.00
71567;BME280;59403;47.456;19.120;2023-05-13T01:42:51;100801.28;;;10.26;100.00
71567;BME280;59403;47.456;19.120;2023-05-13T01:45:18;100802.78;;;10.29;100.00
71567;BME280;59403;47.456;19.120;2023-05-13T01:47:45;100807.25;;;10.28;100.00
71567;BME280;59403;47.456;19.120;2023-05-13T01:50:12;100804.31;;;10.32;100.00
71567;BME280;59403;47.456;19.120;2023-05-13T01:52:39;100802.00;;;10.19;100.00
71567;BME280;59403;47.456;19.120;2023-05-13T01:55:06;100803.00;;;10.08;100.00
71567;BME280;59403;47.456;19.120;2023-05-13T01:57:35;100803.41;;;10.13;100.00
71567;BME280;59403;47.456;19.120;2023-05-13T02:00:02;100804.78;;;10.17;100.00
71567;BME280;59403;47.456;19.120;2023-05-13T02:02:29;100801.59;;;10.14;100.00
71567;BME280;59403;47.456;19.120;2023-05-13T02:04:56;100812.47;;;10.11;100.00
71567;BME280;59403;47.456;19.120;2023-05-13T02:07:23;100813.13;;;10.13;100.00
71567;BME280;59403;47.456;19.120;2023-05-13T02:09:50;100806.03;;;10.13;100.00
71567;BME280;59403;47.456;19.120;2023-05-13T02:12:19;100811.03;;;10.16;100.00
71567;BME280;59403;47.456;19.120;2023-05-13T02:14:48;100801.28;;;10.17;100.00
71567;BME280;59403;47.456;19.120;2023-05-13T02:17:15;100810.50;;;10.03;100.00
71567;BME280;59403;47.456;19.120;2023-05-13T02:19:42;100805.50;;;10.00;100.00
71567;BME280;59403;47.456;19.120;2023-05-13T02:22:08;100805.66;;;9.99;100.00
71567;BME280;59403;47.456;19.120;2023-05-13T02:24:35;100806.34;;;10.10;100.00
71567;BME280;59403;47.456;19.120;2023-05-13T02:27:04;100813.84;;;10.15;100.00
71567;BME280;59403;47.456;19.120;2023-05-13T02:29:31;100810.63;;;10.11;100.00
71567;BME280;59403;47.456;19.120;2023-05-13T02:32:00;100810.66;;;9.92;100.00
71567;BME280;59403;47.456;19.120;2023-05-13T02:34:27;100808.28;;;9.99;100.00
71567;BME280;59403;47.456;19.120;2023-05-13T02:36:54;100812.19;;;9.85;100.00
71567;BME280;59403;47.456;19.120;2023-05-13T02:39:21;100802.16;;;9.89;100.00
71567;BME280;59403;47.456;19.120;2023-05-13T02:41:48;100806.66;;;9.88;100.00
71567;BME280;59403;47.456;19.120;2023-05-13T02:44:15;100811.09;;;9.88;100.00
71567;BME280;59403;47.456;19.120;2023-05-13T02:46:42;100814.69;;;9.87;100.00
71567;BME280;59403;47.456;19.120;2023-05-13T02:49:10;100818.59;;;9.92;100.00
71567;BME280;59403;47.456;19.120;2023-05-13T02:51:38;100820.56;;;9.81;100.00
71567;BME280;59403;47.456;19.120;2023-05-13T02:54:05;100816.69;;;9.75;100.00
71567;BME280;59403;47.456;19.120;2023-05-13T02:56:32;100814.44;;;9.80;100.00
71567;BME280;59403;47.456;19.120;2023-05-13T02:58:59;100818.47;;;9.84;100.00
71567;BME280;59403;47.456;19.120;2023-05-13T03:01:26;100818.31;;;9.95;100.00
71567;BME280;59403;47.456;19.120;2023-05-13T03:03:53;100813.16;;;9.94;100.00
71567;BME280;59403;47.456;19.120;2023-05-13T03:06:21;100822.53;;;9.88;100.00
71567;BME280;59403;47.456;19.120;2023-05-13T03:08:48;100817.22;;;9.88;100.00
71567;BME280;59403;47.456;19.120;2023-05-13T03:11:15;100818.03;;;9.89;100.00
71567;BME280;59403;47.456;19.120;2023-05-13T03:13:42;100817.09;;;9.90;100.00
71567;BME280;59403;47.456;19.120;2023-05-13T03:16:09;100818.59;;;9.92;100.00
71567;BME280;59403;47.456;19.120;2023-05-13T03:18:36;100818.62;;;9.83;100.00
71567;BME280;59403;47.456;19.120;2023-05-13T03:21:03;100818.62;;;9.73;100.00
71567;BME280;59403;47.456;19.120;2023-05-13T03:23:32;100817.78;;;9.82;100.00
71567;BME280;59403;47.456;19.120;2023-05-13T03:25:59;100826.56;;;9.73;100.00
71567;BME280;59403;47.456;19.120;2023-05-13T03:28:26;100819.87;;;9.79;100.00
71567;BME280;59403;47.456;19.120;2023-05-13T03:30:53;100830.88;;;9.74;100.00
71567;BME280;59403;47.456;19.120;2023-05-13T03:33:20;100825.72;;;9.82;100.00
71567;BME280;59403;47.456;19.120;2023-05-13T03:35:47;100826.81;;;9.89;100.00
71567;BME280;59403;47.456;19.120;2023-05-13T03:38:14;100829.34;;;9.81;100.00
71567;BME280;59403;47.456;19.120;2023-05-13T03:40:42;100832.97;;;9.90;100.00
71567;BME280;59403;47.456;19.120;2023-05-13T03:43:09;100843.37;;;9.91;100.00
71567;BME280;59403;47.456;19.120;2023-05-13T03:45:36;100849.09;;;9.96;100.00
71567;BME280;59403;47.456;19.120;2023-05-13T03:48:04;100839.59;;;9.94;100.00
71567;BME280;59403;47.456;19.120;2023-05-13T03:50:31;100836.72;;;9.97;100.00
71567;BME280;59403;47.456;19.120;2023-05-13T03:52:57;100843.09;;;9.94;100.00
71567;BME280;59403;47.456;19.120;2023-05-13T03:55:24;100840.84;;;9.99;100.00
71567;BME280;59403;47.456;19.120;2023-05-13T03:57:53;100852.44;;;9.98;100.00
71567;BME280;59403;47.456;19.120;2023-05-13T04:00:20;100853.28;;;9.99;100.00
71567;BME280;59403;47.456;19.120;2023-05-13T04:02:47;100845.44;;;9.97;100.00
71567;BME280;59403;47.456;19.120;2023-05-13T04:05:14;100858.28;;;9.92;100.00
71567;BME280;59403;47.456;19.120;2023-05-13T04:07:41;100847.00;;;9.90;100.00
71567;BME280;59403;47.456;19.120;2023-05-13T04:10:08;100857.72;;;9.89;100.00
71567;BME280;59403;47.456;19.120;2023-05-13T04:12:35;100857.87;;;9.87;100.00
71567;BME280;59403;47.456;19.120;2023-05-13T04:15:05;100864.56;;;9.91;100.00
71567;BME280;59403;47.456;19.120;2023-05-13T04:17:32;100855.06;;;9.98;100.00
71567;BME280;59403;47.456;19.120;2023-05-13T04:19:59;100866.06;;;9.94;100.00
71567;BME280;59403;47.456;19.120;2023-05-13T04:22:26;100864.84;;;9.88;100.00
71567;BME280;59403;47.456;19.120;2023-05-13T04:24:54;100858.72;;;9.88;100.00
71567;BME280;59403;47.456;19.120;2023-05-13T04:27:21;100865.94;;;9.86;100.00
71567;BME280;59403;47.456;19.120;2023-05-13T04:29:49;100874.88;;;9.85;100.00
71567;BME280;59403;47.456;19.120;2023-05-13T04:32:17;100868.63;;;9.76;100.00
71567;BME280;59403;47.456;19.120;2023-05-13T04:34:46;100876.38;;;9.87;100.00
71567;BME280;59403;47.456;19.120;2023-05-13T04:37:13;100878.75;;;9.90;100.00
71567;BME280;59403;47.456;19.120;2023-05-13T04:39:40;100886.56;;;9.92;100.00
71567;BME280;59403;47.456;19.120;2023-05-13T04:42:07;100887.25;;;9.84;100.00
71567;BME280;59403;47.456;19.120;2023-05-13T04:44:34;100886.56;;;9.92;100.00
71567;BME280;59403;47.456;19.120;2023-05-13T04:47:00;100889.31;;;9.90;100.00
71567;BME280;59403;47.456;19.120;2023-05-13T04:49:29;100892.13;;;9.98;100.00
71567;BME280;59403;47.456;19.120;2023-05-13T04:51:56;100889.88;;;10.03;100.00
71567;BME280;59403;47.456;19.120;2023-05-13T04:54:23;100894.34;;;10.03;100.00
71567;BME280;59403;47.456;19.120;2023-05-13T04:56:50;100893.09;;;10.07;100.00
71567;BME280;59403;47.456;19.120;2023-05-13T04:59:17;100896.56;;;10.07;100.00
71567;BME280;59403;47.456;19.120;2023-05-13T05:01:43;100898.66;;;10.13;100.00
71567;BME280;59403;47.456;19.120;2023-05-13T05:04:10;100896.88;;;10.14;100.00
71567;BME280;59403;47.456;19.120;2023-05-13T05:06:39;100904.25;;;10.10;100.00
71567;BME280;59403;47.456;19.120;2023-05-13T05:09:06;100909.53;;;10.10;100.00
71567;BME280;59403;47.456;19.120;2023-05-13T05:11:33;100908.41;;;10.13;100.00
71567;BME280;59403;47.456;19.120;2023-05-13T05:14:00;100904.66;;;10.15;100.00
71567;BME280;59403;47.456;19.120;2023-05-13T05:16:27;100903.41;;;10.10;100.00
71567;BME280;59403;47.456;19.120;2023-05-13T05:18:53;100904.25;;;10.10;100.00
71567;BME280;59403;47.456;19.120;2023-05-13T05:21:21;100903.81;;;10.15;100.00
71567;BME280;59403;47.456;19.120;2023-05-13T05:23:50;100904.41;;;10.09;100.00
71567;BME280;59403;47.456;19.120;2023-05-13T05:26:17;100902.81;;;10.06;100.00
71567;BME280;59403;47.456;19.120;2023-05-13T05:28:44;100909.81;;;10.07;100.00
71567;BME280;59403;47.456;19.120;2023-05-13T05:31:11;100902.00;;;10.15;100.00
71567;BME280;59403;47.456;19.120;2023-05-13T05:33:39;100906.75;;;10.12;100.00
71567;BME280;59403;47.456;19.120;2023-05-13T05:36:06;100908.97;;;10.16;100.00
71567;BME280;59403;47.456;19.120;2023-05-13T05:38:33;100915.09;;;10.17;100.00
71567;BME280;59403;47.456;19.120;2023-05-13T05:41:02;100916.34;;;10.22;100.00
71567;BME280;59403;47.456;19.120;2023-05-13T05:43:29;100918.00;;;10.23;100.00
71567;BME280;59403;47.456;19.120;2023-05-13T05:45:56;100913.56;;;10.24;100.00
71567;BME280;59403;47.456;19.120;2023-05-13T05:48:23;100921.75;;;10.30;100.00
71567;BME280;59403;47.456;19.120;2023-05-13T05:50:50;100912.13;;;10.39;100.00
71567;BME280;59403;47.456;19.120;2023-05-13T05:53:17;100916.47;;;10.40;100.00
71567;BME280;59403;47.456;19.120;2023-05-13T05:55:44;100914.91;;;10.47;100.00
71567;BME280;59403;47.456;19.120;2023-05-13T05:58:14;100911.41;;;10.47;100.00
71567;BME280;59403;47.456;19.120;2023-05-13T06:00:41;100913.91;;;10.48;100.00
71567;BME280;59403;47.456;19.120;2023-05-13T06:03:08;100918.09;;;10.51;100.00
71567;BME280;59403;47.456;19.120;2023-05-13T06:05:35;100921.16;;;10.46;100.00
71567;BME280;59403;47.456;19.120;2023-05-13T06:08:03;100925.50;;;10.47;100.00
71567;BME280;59403;47.456;19.120;2023-05-13T06:10:30;100926.88;;;10.51;100.00
71567;BME280;59403;47.456;19.120;2023-05-13T06:12:59;100927.84;;;10.50;100.00
71567;BME280;59403;47.456;19.120;2023-05-13T06:15:28;100927.56;;;10.53;100.00
71567;BME280;59403;47.456;19.120;2023-05-13T06:17:55;100921.16;;;10.46;100.00
71567;BME280;59403;47.456;19.120;2023-05-13T06:20:22;100924.38;;;10.50;100.00
71567;BME280;59403;47.456;19.120;2023-05-13T06:22:49;100928.84;;;10.40;100.00
71567;BME280;59403;47.456;19.120;2023-05-13T06:25:16;100938.03;;;10.36;100.00
71567;BME280;59403;47.456;19.120;2023-05-13T06:27:43;100933.44;;;10.38;100.00
71567;BME280;59403;47.456;19.120;2023-05-13T06:30:11;100924.94;;;10.44;100.00
71567;BME280;59403;47.456;19.120;2023-05-13T06:32:39;100931.50;;;10.49;100.00
71567;BME280;59403;47.456;19.120;2023-05-13T06:35:07;100937.59;;;10.59;100.00
71567;BME280;59403;47.456;19.120;2023-05-13T06:37:33;100937.03;;;10.56;100.00
71567;BME280;59403;47.456;19.120;2023-05-13T06:40:00;100936.50;;;10.52;100.00
71567;BME280;59403;47.456;19.120;2023-05-13T06:42:28;100936.88;;;10.67;100.00
71567;BME280;59403;47.456;19.120;2023-05-13T06:44:56;100939.53;;;10.67;100.00
71567;BME280;59403;47.456;19.120;2023-05-13T06:47:23;100940.34;;;10.67;100.00
71567;BME280;59403;47.456;19.120;2023-05-13T06:49:51;100938.13;;;10.63;100.00
71567;BME280;59403;47.456;19.120;2023-05-13T06:52:18;100929.66;;;10.50;100.00
71567;BME280;59403;47.456;19.120;2023-05-13T06:54:45;100933.94;;;10.60;100.00
71567;BME280;59403;47.456;19.120;2023-05-13T06:57:11;100929.06;;;10.65;100.00
71567;BME280;59403;47.456;19.120;2023-05-13T06:59:38;100932.16;;;10.61;100.00
71567;BME280;59403;47.456;19.120;2023-05-13T07:02:05;100926.00;;;10.70;100.00
71567;BME280;59403;47.456;19.120;2023-05-13T07:04:34;100927.88;;;10.87;100.00
71567;BME280;59403;47.456;19.120;2023-05-13T07:07:02;100933.72;;;10.90;100.00
71567;BME280;59403;47.456;19.120;2023-05-13T07:09:30;100929.50;;;10.97;100.00
71567;BME280;59403;47.456;19.120;2023-05-13T07:11:57;100934.47;;;11.10;100.00
71567;BME280;59403;47.456;19.120;2023-05-13T07:14:24;100933.62;;;11.09;100.00
71567;BME280;59403;47.456;19.120;2023-05-13T07:16:51;100931.53;;;10.86;100.00
71567;BME280;59403;47.456;19.120;2023-05-13T07:19:18;100932.44;;;10.94;100.00
71567;BME280;59403;47.456;19.120;2023-05-13T07:21:45;100929.72;;;10.77;100.00
71567;BME280;59403;47.456;19.120;2023-05-13T07:24:13;100927.97;;;10.95;100.00
71567;BME280;59403;47.456;19.120;2023-05-13T07:26:41;100931.00;;;11.00;100.00
71567;BME280;59403;47.456;19.120;2023-05-13T07:29:08;100933.13;;;10.96;100.00
71567;BME280;59403;47.456;19.120;2023-05-13T07:31:35;100934.72;;;11.16;100.00
71567;BME280;59403;47.456;19.120;2023-05-13T07:34:02;100937.59;;;11.23;100.00
71567;BME280;59403;47.456;19.120;2023-05-13T07:36:29;100933.31;;;11.12;100.00
71567;BME280;59403;47.456;19.120;2023-05-13T07:38:56;100940.56;;;11.20;100.00
71567;BME280;59403;47.456;19.120;2023-05-13T07:41:24;100943.00;;;11.31;100.00
71567;BME280;59403;47.456;19.120;2023-05-13T07:43:52;100952.78;;;11.30;100.00
71567;BME280;59403;47.456;19.120;2023-05-13T07:46:19;100940.53;;;11.47;100.00
71567;BME280;59403;47.456;19.120;2023-05-13T07:48:45;100939.81;;;11.27;100.00
71567;BME280;59403;47.456;19.120;2023-05-13T07:51:12;100944.06;;;11.38;100.00
71567;BME280;59403;47.456;19.120;2023-05-13T07:53:40;100946.69;;;11.20;100.00
71567;BME280;59403;47.456;19.120;2023-05-13T07:56:07;100950.06;;;11.13;100.00
71567;BME280;59403;47.456;19.120;2023-05-13T07:58:36;100947.44;;;11.03;100.00
71567;BME280;59403;47.456;19.120;2023-05-13T08:01:03;100958.59;;;11.07;100.00
71567;BME280;59403;47.456;19.120;2023-05-13T08:03:30;100956.22;;;11.13;100.00
71567;BME280;59403;47.456;19.120;2023-05-13T08:05:57;100956.66;;;11.36;100.00
71567;BME280;59403;47.456;19.120;2023-05-13T08:08:24;100957.62;;;11.35;100.00
71567;BME280;59403;47.456;19.120;2023-05-13T08:10:51;100965.19;;;11.30;100.00
71567;BME280;59403;47.456;19.120;2023-05-13T08:13:18;100964.62;;;11.36;100.00
71567;BME280;59403;47.456;19.120;2023-05-13T08:15:47;100974.62;;;11.15;100.00
71567;BME280;59403;47.456;19.120;2023-05-13T08:18:14;100981.16;;;11.20;100.00
71567;BME280;59403;47.456;19.120;2023-05-13T08:20:41;100982.50;;;11.34;100.00
71567;BME280;59403;47.456;19.120;2023-05-13T08:23:07;100980.25;;;11.29;100.00
71567;BME280;59403;47.456;19.120;2023-05-13T08:25:34;100980.53;;;11.36;100.00
71567;BME280;59403;47.456;19.120;2023-05-13T08:28:02;100989.94;;;11.21;100.00
71567;BME280;59403;47.456;19.120;2023-05-13T08:30:29;100981.78;;;11.32;100.00
71567;BME280;59403;47.456;19.120;2023-05-13T08:32:57;100990.59;;;11.32;100.00
71567;BME280;59403;47.456;19.120;2023-05-13T08:35:24;100987.41;;;11.29;100.00
71567;BME280;59403;47.456;19.120;2023-05-13T08:37:50;100996.81;;;11.41;100.00
71567;BME280;59403;47.456;19.120;2023-05-13T08:40:18;100990.91;;;11.47;100.00
71567;BME280;59403;47.456;19.120;2023-05-13T08:42:46;101001.25;;;11.50;100.00
71567;BME280;59403;47.456;19.120;2023-05-13T08:45:14;101001.59;;;11.37;100.00
71567;BME280;59403;47.456;19.120;2023-05-13T08:47:50;100994.59;;;11.36;100.00
71567;BME280;59403;47.456;19.120;2023-05-13T08:50:19;100992.31;;;11.51;100.00
71567;BME280;59403;47.456;19.120;2023-05-13T08:52:47;100985.94;;;11.89;100.00
71567;BME280;59403;47.456;19.120;2023-05-13T08:55:16;100986.41;;;12.02;100.00
71567;BME280;59403;47.456;19.120;2023-05-13T08:57:43;100989.13;;;12.10;100.00
71567;BME280;59403;47.456;19.120;2023-05-13T09:00:11;100986.03;;;12.14;100.00
71567;BME280;59403;47.456;19.120;2023-05-13T09:02:39;100987.47;;;12.26;100.00
71567;BME280;59403;47.456;19.120;2023-05-13T09:05:07;100996.69;;;12.40;100.00
71567;BME280;59403;47.456;19.120;2023-05-13T09:07:37;100994.66;;;12.16;100.00
71567;BME280;59403;47.456;19.120;2023-05-13T09:10:05;100983.97;;;12.26;100.00
71567;BME280;59403;47.456;19.120;2023-05-13T09:12:46;100989.28;;;12.26;100.00
71567;BME280;59403;47.456;19.120;2023-05-13T09:15:15;100990.25;;;12.25;100.00
71567;BME280;59403;47.456;19.120;2023-05-13T09:17:43;100986.84;;;12.32;100.00
71567;BME280;59403;47.456;19.120;2023-05-13T09:20:12;100988.22;;;12.19;100.00
71567;BME280;59403;47.456;19.120;2023-05-13T09:22:44;100987.84;;;12.31;100.00
71567;BME280;59403;47.456;19.120;2023-05-13T09:25:12;100977.81;;;12.25;100.00
71567;BME280;59403;47.456;19.120;2023-05-13T09:27:41;100981.19;;;12.53;100.00
71567;BME280;59403;47.456;19.120;2023-05-13T09:30:09;100980.09;;;12.64;100.00
71567;BME280;59403;47.456;19.120;2023-05-13T09:32:36;100978.03;;;12.75;100.00
71567;BME280;59403;47.456;19.120;2023-05-13T09:35:11;100986.75;;;12.42;100.00
71567;BME280;59403;47.456;19.120;2023-05-13T09:37:43;100981.19;;;12.53;100.00
71567;BME280;59403;47.456;19.120;2023-05-13T09:40:11;100982.75;;;12.64;100.00
71567;BME280;59403;47.456;19.120;2023-05-13T09:42:42;100984.59;;;12.63;100.00
71567;BME280;59403;47.456;19.120;2023-05-13T09:45:11;100984.44;;;12.65;100.00
71567;BME280;59403;47.456;19.120;2023-05-13T09:47:38;100986.09;;;12.66;100.00
71567;BME280;59403;47.456;19.120;2023-05-13T09:50:06;100987.72;;;12.41;100.00
71567;BME280;59403;47.456;19.120;2023-05-13T09:52:35;100985.59;;;12.44;100.00
71567;BME280;59403;47.456;19.120;2023-05-13T09:55:07;100992.03;;;12.60;100.00
71567;BME280;59403;47.456;19.120;2023-05-13T09:57:34;100985.56;;;12.62;100.00
71567;BME280;59403;47.456;19.120;2023-05-13T10:00:04;100985.87;;;12.59;100.00
71567;BME280;59403;47.456;19.120;2023-05-13T10:02:31;100981.41;;;12.85;100.00
71567;BME280;59403;47.456;19.120;2023-05-13T10:04:59;100977.59;;;12.88;100.00
71567;BME280;59403;47.456;19.120;2023-05-13T10:07:26;100984.22;;;13.09;100.00
71567;BME280;59403;47.456;19.120;2023-05-13T10:09:57;100975.75;;;13.14;100.00
71567;BME280;59403;47.456;19.120;2023-05-13T10:12:26;100974.91;;;13.05;100.00
71567;BME280;59403;47.456;19.120;2023-05-13T10:14:54;100970.44;;;13.14;100.00
71567;BME280;59403;47.456;19.120;2023-05-13T10:17:23;100974.97;;;13.21;100.00
71567;BME280;59403;47.456;19.120;2023-05-13T10:19:52;100970.19;;;13.33;100.00
71567;BME280;59403;47.456;19.120;2023-05-13T10:22:26;100977.50;;;13.31;100.00
71567;BME280;59403;47.456;19.120;2023-05-13T10:24:55;100970.69;;;13.28;100.00
71567;BME280;59403;47.456;19.120;2023-05-13T10:27:27;100975.50;;;13.25;98.68
71567;BME280;59403;47.456;19.120;2023-05-13T10:29:56;100972.56;;;13.44;100.00
71567;BME280;59403;47.456;19.120;2023-05-13T10:32:23;100978.91;;;13.43;100.00
71567;BME280;59403;47.456;19.120;2023-05-13T10:34:54;100975.31;;;13.26;100.00
71567;BME280;59403;47.456;19.120;2023-05-13T10:37:37;100974.19;;;13.29;100.00
71567;BME280;59403;47.456;19.120;2023-05-13T10:40:31;100972.75;;;13.09;100.00
71567;BME280;59403;47.456;19.120;2023-05-13T10:43:09;100973.06;;;13.06;100.00
71567;BME280;59403;47.456;19.120;2023-05-13T10:45:38;100974.47;;;13.18;100.00
71567;BME280;59403;47.456;19.120;2023-05-13T10:48:05;100970.28;;;13.15;100.00
71567;BME280;59403;47.456;19.120;2023-05-13T10:50:35;100972.50;;;13.28;100.00
71567;BME280;59403;47.456;19.120;2023-05-13T10:53:07;100977.97;;;13.18;100.00
71567;BME280;59403;47.456;19.120;2023-05-13T10:55:39;100976.25;;;13.09;100.00
71567;BME280;59403;47.456;19.120;2023-05-13T10:58:12;100977.97;;;13.18;100.00
71567;BME280;59403;47.456;19.120;2023-05-13T11:00:40;100976.50;;;13.24;100.00
71567;BME280;59403;47.456;19.120;2023-05-13T11:03:09;100967.50;;;13.17;100.00
71567;BME280;59403;47.456;19.120;2023-05-13T11:05:38;100971.31;;;13.22;100.00
71567;BME280;59403;47.456;19.120;2023-05-13T11:08:06;100976.59;;;13.14;100.00
71567;BME280;59403;47.456;19.120;2023-05-13T11:10:33;100971.91;;;13.08;100.00
71567;BME280;59403;47.456;19.120;2023-05-13T11:15:52;100974.47;;;12.92;100.00
71567;BME280;59403;47.456;19.120;2023-05-13T11:18:28;100972.78;;;12.91;100.00
71567;BME280;59403;47.456;19.120;2023-05-13T11:21:01;100970.97;;;12.92;100.00
71567;BME280;59403;47.456;19.120;2023-05-13T11:23:28;100976.28;;;12.92;100.00
71567;BME280;59403;47.456;19.120;2023-05-13T11:26:11;100973.88;;;12.81;100.00
71567;BME280;59403;47.456;19.120;2023-05-13T11:28:58;100975.41;;;12.83;100.00
71567;BME280;59403;47.456;19.120;2023-05-13T11:31:27;100978.03;;;12.75;100.00
71567;BME280;59403;47.456;19.120;2023-05-13T11:34:09;100975.72;;;12.80;100.00
71567;BME280;59403;47.456;19.120;2023-05-13T11:36:37;100982.69;;;12.81;100.00
71567;BME280;59403;47.456;19.120;2023-05-13T11:39:09;100983.06;;;12.86;100.00
71567;BME280;59403;47.456;19.120;2023-05-13T11:41:38;100977.66;;;12.96;100.00
71567;BME280;59403;47.456;19.120;2023-05-13T11:44:06;100977.81;;;12.94;100.00
71567;BME280;59403;47.456;19.120;2023-05-13T11:46:35;100973.75;;;12.82;100.00
71567;BME280;59403;47.456;19.120;2023-05-13T11:49:02;100978.63;;;12.95;100.00
71567;BME280;59403;47.456;19.120;2023-05-13T11:51:29;100979.31;;;12.97;100.00
71567;BME280;59403;47.456;19.120;2023-05-13T11:54:01;100979.25;;;13.06;100.00
71567;BME280;59403;47.456;19.120;2023-05-13T11:56:28;100977.38;;;13.07;100.00
71567;BME280;59403;47.456;19.120;2023-05-13T11:59:11;100985.19;;;13.08;100.00
71567;BME280;59403;47.456;19.120;2023-05-13T12:01:40;100976.13;;;13.19;100.00
71567;BME280;59403;47.456;19.120;2023-05-13T12:04:07;100976.63;;;13.22;100.00
71567;BME280;59403;47.456;19.120;2023-05-13T12:06:34;100978.69;;;13.36;99.98
71567;BME280;59403;47.456;19.120;2023-05-13T12:09:10;100985.87;;;13.52;100.00
71567;BME280;59403;47.456;19.120;2023-05-13T12:11:38;100979.25;;;13.56;100.00
71567;BME280;59403;47.456;19.120;2023-05-13T12:14:07;100974.09;;;13.54;100.00
71567;BME280;59403;47.456;19.120;2023-05-13T12:16:34;100977.31;;;13.74;99.44
71567;BME280;59403;47.456;19.120;2023-05-13T12:19:05;100980.63;;;13.68;97.34
71567;BME280;59403;47.456;19.120;2023-05-13T12:21:32;100979.94;;;13.66;96.26
71567;BME280;59403;47.456;19.120;2023-05-13T12:23:59;100985.09;;;13.67;97.31
71567;BME280;59403;47.456;19.120;2023-05-13T12:26:26;100980.91;;;13.57;96.47
71567;BME280;59403;47.456;19.120;2023-05-13T12:28:57;100989.13;;;13.72;97.23
71567;BME280;59403;47.456;19.120;2023-05-13T12:31:25;100990.41;;;13.51;95.48
71567;BME280;59403;47.456;19.120;2023-05-13T12:33:52;100992.44;;;13.65;96.51
71567;BME280;59403;47.456;19.120;2023-05-13T12:36:21;100987.44;;;13.62;97.10
71567;BME280;59403;47.456;19.120;2023-05-13T12:38:57;100993.59;;;13.71;96.93
71567;BME280;59403;47.456;19.120;2023-05-13T12:41:28;100987.75;;;13.59;97.13